Du har inga inställningar för hoppväder.nu

Hoppväder.nu

Senast uppdaterat 03:47

UTC-tid

2018-04-26 kl. 01:47


Sol och måne

Solen går upp 5:12 och går ner 20:42 (beräknade cirkatider)
Nästa fullmåne blir om 4 dagar (2018-04-30)

METAR

ESOE (Örebro)
(27 minuter sedan)
ESOE 260120Z AUTO 25010KT 9999 OVC007/// 06/05 Q0999=



ESOK (Karlstad)
(27 minuter sedan)
ESOK 260120Z AUTO 21004KT 9999 SCT078/// 01/01 Q0998=



ESGR (Skövde)
(27 minuter sedan)
ESGR 260120Z AUTO 21006KT 180V260 9999 BKN015/// BKN088/// 06/01 Q0999=



ESSD (Borlänge)
(27 minuter sedan)
ESSD 260120Z AUTO 02003KT 9999 OVC066/// 04/M01 Q0997=



ESOW (Västerås)
(27 minuter sedan)
ESOW 260120Z AUTO 24003KT 9999 BKN066/// 06/02 Q0998=



TAF

ESOE (Örebro)
(77 minuter sedan)
ESOE RRA 260030Z 2601/2609 24007KT 9999 OVC007 TEMPO 2601/2604 BKN004 PROB40 2604/2607 BKN010 BECMG 2607/2609 BKN015=



ESOK (Karlstad)
(347 minuter sedan)
ESOK 252000Z NIL=



ESGR (Skövde)
ESGR



ESSD (Borlänge)
(347 minuter sedan)
ESSD 252000Z NIL=



ESOW (Västerås)
(347 minuter sedan)
ESOW 252000Z NIL=





Kodnycklar till TAF och METAR






LHP

(Örebro är område G2a i Södra delen)

Prognos är inte uppdaterad




Spotting

Hur fungerar spotthjälpen och Vindkartan?

Markvind är ca 0 m/s.



Vindkartan

Senast uppdaterad 03:47



All data kommer från LFV.se